createdAt,value
2022-11-27T00:01:32.237Z,2.97
2022-11-27T00:04:00.706Z,3.00
2022-11-27T00:06:30.761Z,3.00
2022-11-27T00:09:02.125Z,2.98
2022-11-27T00:11:32.077Z,2.95
2022-11-27T00:14:01.344Z,2.92
2022-11-27T00:16:30.207Z,2.88
2022-11-27T00:18:58.845Z,2.94
2022-11-27T00:21:28.966Z,2.96
2022-11-27T00:23:59.253Z,2.94
2022-11-27T00:26:36.043Z,2.88
2022-11-27T00:29:06.129Z,2.83
2022-11-27T00:31:37.464Z,2.63
2022-11-27T00:34:09.426Z,2.58
2022-11-27T00:36:38.410Z,2.62
2022-11-27T00:39:07.489Z,2.68
2022-11-27T00:41:37.817Z,2.69
2022-11-27T00:44:06.760Z,2.72
2022-11-27T00:46:36.470Z,2.70
2022-11-27T00:49:06.841Z,2.62
2022-11-27T00:51:35.812Z,2.53
2022-11-27T00:54:05.052Z,2.39
2022-11-27T00:56:35.422Z,2.30
2022-11-27T00:59:06.205Z,2.25
2022-11-27T01:01:36.805Z,2.26
2022-11-27T01:04:07.337Z,2.37
2022-11-27T01:06:35.902Z,2.33
2022-11-27T01:09:05.264Z,2.21
2022-11-27T01:11:35.286Z,2.22
2022-11-27T01:14:08.053Z,2.30
2022-11-27T01:16:42.557Z,2.39
2022-11-27T01:19:12.807Z,2.49
2022-11-27T01:21:41.744Z,2.51
2022-11-27T01:24:13.032Z,2.51
2022-11-27T01:26:42.164Z,2.41
2022-11-27T01:29:12.536Z,2.34
2022-11-27T01:31:41.230Z,2.39
2022-11-27T01:34:14.663Z,2.43
2022-11-27T01:36:43.105Z,2.47
2022-11-27T01:39:16.472Z,2.51
2022-11-27T01:41:45.764Z,2.50
2022-11-27T01:44:51.503Z,2.51
2022-11-27T01:47:40.134Z,2.56
2022-11-27T01:50:14.799Z,2.59
2022-11-27T01:52:49.260Z,2.62
2022-11-27T01:55:23.105Z,2.64
2022-11-27T01:57:55.761Z,2.63
2022-11-27T02:00:26.397Z,2.63
2022-11-27T02:02:54.889Z,2.60
2022-11-27T02:05:26.400Z,2.60
2022-11-27T02:07:55.404Z,2.49
2022-11-27T02:10:27.848Z,2.25
2022-11-27T02:13:02.126Z,2.15
2022-11-27T02:15:42.426Z,2.14
2022-11-27T02:18:17.390Z,2.20
2022-11-27T02:20:52.345Z,2.23
2022-11-27T02:23:50.569Z,2.28
2022-11-27T02:26:34.321Z,2.27
2022-11-27T02:29:07.553Z,2.21
2022-11-27T02:31:41.800Z,2.19
2022-11-27T02:34:19.521Z,2.25
2022-11-27T02:36:54.204Z,2.25
2022-11-27T02:39:28.909Z,2.18
2022-11-27T02:42:02.940Z,2.12
2022-11-27T02:44:37.433Z,2.13
2022-11-27T02:47:06.671Z,2.00
2022-11-27T02:49:38.072Z,1.81
2022-11-27T02:52:07.873Z,1.80
2022-11-27T02:54:37.013Z,1.87
2022-11-27T02:57:07.469Z,1.92
2022-11-27T02:59:38.208Z,1.88
2022-11-27T03:02:10.955Z,1.94
2022-11-27T03:04:44.402Z,2.01
2022-11-27T03:07:19.438Z,2.04
2022-11-27T03:09:50.622Z,1.88
2022-11-27T03:12:20.109Z,1.75
2022-11-27T03:14:51.637Z,1.73
2022-11-27T03:17:34.289Z,1.77
2022-11-27T03:20:09.630Z,1.72
2022-11-27T03:22:38.124Z,1.65
2022-11-27T03:25:07.288Z,1.66
2022-11-27T03:27:42.354Z,1.74
2022-11-27T03:30:13.741Z,1.83
2022-11-27T03:32:42.304Z,1.87
2022-11-27T03:35:13.390Z,1.93
2022-11-27T03:37:42.155Z,2.01
2022-11-27T03:40:11.836Z,2.08
2022-11-27T03:42:57.274Z,2.14
2022-11-27T03:45:33.137Z,2.18
2022-11-27T03:48:15.630Z,2.20
2022-11-27T03:51:09.173Z,2.22
2022-11-27T03:53:50.014Z,2.17
2022-11-27T03:56:31.354Z,2.16
2022-11-27T03:59:05.837Z,2.18
2022-11-27T04:01:35.685Z,2.19
2022-11-27T04:04:04.264Z,2.14
2022-11-27T04:06:32.696Z,2.11
2022-11-27T04:09:01.019Z,2.01
2022-11-27T04:11:29.384Z,1.98
2022-11-27T04:13:57.845Z,2.05
2022-11-27T04:16:26.378Z,2.09
2022-11-27T04:18:56.197Z,2.13
2022-11-27T04:21:24.515Z,2.14
2022-11-27T04:23:52.810Z,2.12
2022-11-27T04:26:21.150Z,2.09
2022-11-27T04:28:49.474Z,2.08
2022-11-27T04:31:18.921Z,2.08
2022-11-27T04:33:47.319Z,2.04
2022-11-27T04:36:16.996Z,1.92
2022-11-27T04:38:45.245Z,1.91
2022-11-27T04:41:13.577Z,1.94
2022-11-27T04:43:42.061Z,1.94
2022-11-27T04:46:10.352Z,1.76
2022-11-27T04:48:38.729Z,1.71
2022-11-27T04:51:07.434Z,1.75
2022-11-27T04:53:37.726Z,1.69
2022-11-27T04:56:06.273Z,1.67
2022-11-27T04:58:34.890Z,1.57
2022-11-27T05:01:03.218Z,1.51
2022-11-27T05:03:31.504Z,1.55
2022-11-27T05:06:00.089Z,1.58
2022-11-27T05:08:30.974Z,1.57
2022-11-27T05:11:02.348Z,1.51
2022-11-27T05:13:30.674Z,1.49
2022-11-27T05:15:59.153Z,1.45
2022-11-27T05:18:27.787Z,1.43
2022-11-27T05:20:58.640Z,1.48
2022-11-27T05:23:27.924Z,1.53
2022-11-27T05:25:56.705Z,1.56
2022-11-27T05:28:27.206Z,1.60
2022-11-27T05:30:55.728Z,1.64
2022-11-27T05:33:24.118Z,1.67
2022-11-27T05:35:52.575Z,1.67
2022-11-27T05:38:20.909Z,1.59
2022-11-27T05:40:49.732Z,1.54
2022-11-27T05:43:18.033Z,1.56
2022-11-27T05:45:47.700Z,1.52
2022-11-27T05:48:16.044Z,1.48
2022-11-27T05:50:44.353Z,1.52
2022-11-27T05:53:12.685Z,1.55
2022-11-27T05:55:41.489Z,1.47
2022-11-27T05:58:09.800Z,1.46
2022-11-27T06:00:38.108Z,1.54
2022-11-27T06:03:07.887Z,1.60
2022-11-27T06:05:39.949Z,1.60
2022-11-27T06:08:08.606Z,1.57
2022-11-27T06:10:38.901Z,1.51
2022-11-27T06:13:07.937Z,1.54
2022-11-27T06:15:37.761Z,1.54
2022-11-27T06:18:08.294Z,1.57
2022-11-27T06:20:40.776Z,1.55
2022-11-27T06:23:11.948Z,1.50
2022-11-27T06:25:40.280Z,1.55
2022-11-27T06:28:08.609Z,1.60
2022-11-27T06:30:38.685Z,1.66
2022-11-27T06:33:08.337Z,1.70
2022-11-27T06:35:36.647Z,1.71
2022-11-27T06:38:04.997Z,1.72
2022-11-27T06:40:33.586Z,1.76
2022-11-27T06:43:01.917Z,1.80
2022-11-27T06:45:30.359Z,1.79
2022-11-27T06:47:59.534Z,1.75
2022-11-27T06:50:29.367Z,1.74
2022-11-27T06:52:57.700Z,1.74
2022-11-27T06:55:26.004Z,1.74
2022-11-27T06:57:54.251Z,1.72
2022-11-27T07:00:23.319Z,1.71
2022-11-27T07:02:55.044Z,1.73
2022-11-27T07:05:25.242Z,1.75
2022-11-27T07:07:55.075Z,1.72
2022-11-27T07:10:23.561Z,1.75
2022-11-27T07:12:51.861Z,1.79
2022-11-27T07:15:20.215Z,1.80
2022-11-27T07:17:48.505Z,1.83
2022-11-27T07:20:17.064Z,1.86
2022-11-27T07:22:45.489Z,1.86
2022-11-27T07:25:15.204Z,1.85
2022-11-27T07:27:43.910Z,1.83
2022-11-27T07:30:12.976Z,1.84
2022-11-27T07:32:41.433Z,1.70
2022-11-27T07:35:10.569Z,1.65
2022-11-27T07:37:39.185Z,1.73
2022-11-27T07:40:09.370Z,1.75
2022-11-27T07:42:39.524Z,1.79
2022-11-27T07:45:09.173Z,1.83
2022-11-27T07:47:37.861Z,1.85
2022-11-27T07:50:08.921Z,1.87
2022-11-27T07:52:41.450Z,1.93
2022-11-27T07:55:11.702Z,2.00
2022-11-27T07:57:42.372Z,2.04
2022-11-27T08:00:11.918Z,2.10
2022-11-27T08:02:40.301Z,2.16
2022-11-27T08:05:12.726Z,2.22
2022-11-27T08:07:42.128Z,2.30
2022-11-27T08:10:10.836Z,2.40
2022-11-27T08:12:39.229Z,2.48
2022-11-27T08:15:10.743Z,2.55
2022-11-27T08:17:40.117Z,2.62
2022-11-27T08:20:09.226Z,2.66
2022-11-27T08:22:38.433Z,2.70
2022-11-27T08:25:07.526Z,2.73
2022-11-27T08:27:36.331Z,2.74
2022-11-27T08:30:05.791Z,2.73
2022-11-27T08:32:36.162Z,2.75
2022-11-27T08:35:04.872Z,2.76
2022-11-27T08:37:35.030Z,2.76
2022-11-27T08:40:03.801Z,2.76
2022-11-27T08:42:32.877Z,2.72
2022-11-27T08:45:01.249Z,2.72
2022-11-27T08:47:29.561Z,2.71
2022-11-27T08:49:59.393Z,2.73
2022-11-27T08:52:28.486Z,2.78
2022-11-27T08:54:58.174Z,2.84
2022-11-27T08:57:26.700Z,2.85
2022-11-27T08:59:55.053Z,2.88
2022-11-27T09:02:23.498Z,2.93
2022-11-27T09:04:51.887Z,2.95
2022-11-27T09:07:21.846Z,3.01
2022-11-27T09:09:50.342Z,3.07
2022-11-27T09:12:18.718Z,3.12
2022-11-27T09:14:47.083Z,3.16
2022-11-27T09:17:15.448Z,3.19
2022-11-27T09:19:43.834Z,3.25
2022-11-27T09:22:12.185Z,3.29
2022-11-27T09:24:42.551Z,3.37
2022-11-27T09:27:13.845Z,3.45
2022-11-27T09:29:42.209Z,3.53
2022-11-27T09:32:10.680Z,3.61
2022-11-27T09:34:39.717Z,3.68
2022-11-27T09:37:09.026Z,3.73
2022-11-27T09:39:37.670Z,3.80
2022-11-27T09:42:09.693Z,3.87
2022-11-27T09:44:45.373Z,3.91
2022-11-27T09:47:20.798Z,3.93
2022-11-27T09:49:53.452Z,3.94
2022-11-27T09:52:26.540Z,3.97
2022-11-27T09:55:01.521Z,3.99
2022-11-27T09:57:35.413Z,4.02
2022-11-27T10:00:17.486Z,4.08
2022-11-27T10:02:46.520Z,4.13
2022-11-27T10:05:21.862Z,4.18
2022-11-27T10:08:22.734Z,4.25
2022-11-27T10:11:03.317Z,4.24
2022-11-27T10:13:52.521Z,4.25
2022-11-27T10:16:27.595Z,4.26
2022-11-27T10:19:01.785Z,4.33
2022-11-27T10:21:40.843Z,4.37
2022-11-27T10:24:22.238Z,4.46
2022-11-27T10:26:53.981Z,4.51
2022-11-27T10:29:37.207Z,4.53
2022-11-27T10:32:32.869Z,4.54
2022-11-27T10:35:05.740Z,4.60
2022-11-27T10:37:43.086Z,4.68
2022-11-27T10:40:24.531Z,4.82
2022-11-27T10:43:01.833Z,5.00
2022-11-27T10:45:43.856Z,5.14
2022-11-27T10:48:13.481Z,5.23
2022-11-27T10:50:42.625Z,5.34
2022-11-27T10:53:16.075Z,5.45
2022-11-27T10:56:17.144Z,5.62
2022-11-27T10:58:52.017Z,5.84
2022-11-27T11:01:25.575Z,5.97
2022-11-27T11:04:24.275Z,6.03
2022-11-27T11:06:54.696Z,6.19
2022-11-27T11:09:25.645Z,6.39
2022-11-27T11:11:54.441Z,6.48
2022-11-27T11:14:27.201Z,6.45
2022-11-27T11:16:57.073Z,6.36
2022-11-27T11:19:30.031Z,6.25
2022-11-27T11:22:00.598Z,6.18
2022-11-27T11:24:30.609Z,6.10
2022-11-27T11:27:02.215Z,5.95
2022-11-27T11:29:35.909Z,5.77
2022-11-27T11:32:10.452Z,5.63
2022-11-27T11:34:44.440Z,5.53
2022-11-27T11:37:25.070Z,5.45
2022-11-27T11:40:03.939Z,5.46
2022-11-27T11:42:34.826Z,5.53
2022-11-27T11:45:05.661Z,5.52
2022-11-27T11:47:37.412Z,5.47
2022-11-27T11:50:07.297Z,5.43
2022-11-27T11:52:52.106Z,5.40
2022-11-27T11:55:27.702Z,5.33
2022-11-27T11:58:10.437Z,5.28
2022-11-27T12:01:04.694Z,5.20
2022-11-27T12:04:03.321Z,5.16
2022-11-27T12:06:44.621Z,5.09
2022-11-27T12:09:26.862Z,5.07
2022-11-27T12:12:03.570Z,5.01
2022-11-27T12:14:44.449Z,4.92
2022-11-27T12:17:28.749Z,4.83
2022-11-27T12:20:25.201Z,4.75
2022-11-27T12:23:28.231Z,4.54
2022-11-27T12:26:08.738Z,4.38
2022-11-27T12:28:59.434Z,4.34
2022-11-27T12:31:43.645Z,4.33
2022-11-27T12:34:22.775Z,4.37
2022-11-27T12:37:13.907Z,4.38
2022-11-27T12:40:01.138Z,4.42
2022-11-27T12:42:36.854Z,4.42
2022-11-27T12:45:15.790Z,4.42
2022-11-27T12:47:47.082Z,4.39
2022-11-27T12:50:23.950Z,4.39
2022-11-27T12:53:01.301Z,4.38
2022-11-27T12:55:32.449Z,4.43
2022-11-27T12:58:04.829Z,4.44
2022-11-27T13:00:38.189Z,4.45
2022-11-27T13:03:13.320Z,4.43
2022-11-27T13:05:45.282Z,4.43
2022-11-27T13:08:21.141Z,4.44
2022-11-27T13:10:56.349Z,4.42
2022-11-27T13:13:30.308Z,4.43
2022-11-27T13:16:01.999Z,4.43
2022-11-27T13:18:35.997Z,4.47
2022-11-27T13:21:10.153Z,4.49
2022-11-27T13:23:40.842Z,4.49
2022-11-27T13:26:16.327Z,4.44
2022-11-27T13:28:48.599Z,4.42
2022-11-27T13:31:23.320Z,4.41
2022-11-27T13:33:53.328Z,4.42
2022-11-27T13:36:25.881Z,4.44
2022-11-27T13:38:58.957Z,4.46
2022-11-27T13:41:33.757Z,4.43
2022-11-27T13:44:04.217Z,4.42
2022-11-27T13:46:49.051Z,4.40
2022-11-27T13:49:27.197Z,4.38
2022-11-27T13:52:10.573Z,4.31
2022-11-27T13:54:53.309Z,4.29
2022-11-27T13:57:22.949Z,4.30
2022-11-27T14:00:13.692Z,4.28
2022-11-27T14:02:44.511Z,4.30
2022-11-27T14:05:14.183Z,4.32
2022-11-27T14:07:45.541Z,4.31
2022-11-27T14:10:19.963Z,4.28
2022-11-27T14:12:56.007Z,4.30
2022-11-27T14:15:27.128Z,4.29
2022-11-27T14:18:08.552Z,4.27
2022-11-27T14:20:46.937Z,4.28
2022-11-27T14:23:15.518Z,4.27
2022-11-27T14:25:45.254Z,4.26
2022-11-27T14:28:17.006Z,4.24
2022-11-27T14:30:48.985Z,4.24
2022-11-27T14:33:20.284Z,4.24
2022-11-27T14:35:52.450Z,4.24
2022-11-27T14:38:20.926Z,4.21
2022-11-27T14:40:53.206Z,4.19
2022-11-27T14:43:25.941Z,4.19
2022-11-27T14:45:57.237Z,4.20
2022-11-27T14:48:41.445Z,4.20
2022-11-27T14:51:16.563Z,4.22
2022-11-27T14:53:46.251Z,4.22
2022-11-27T14:56:17.999Z,4.15
2022-11-27T14:58:51.933Z,4.11
2022-11-27T15:01:26.034Z,4.07
2022-11-27T15:03:58.831Z,4.03
2022-11-27T15:06:29.246Z,4.03
2022-11-27T15:09:29.837Z,4.02
2022-11-27T15:11:55.978Z,4.04
2022-11-27T15:14:26.622Z,4.04
2022-11-27T15:16:56.259Z,4.05
2022-11-27T15:19:29.603Z,4.06
2022-11-27T15:21:58.849Z,4.08
2022-11-27T15:24:34.084Z,4.04
2022-11-27T15:27:18.804Z,3.97
2022-11-27T15:30:02.045Z,3.91
2022-11-27T15:32:46.938Z,3.91
2022-11-27T15:35:16.714Z,3.87
2022-11-27T15:37:45.061Z,3.80
2022-11-27T15:40:28.383Z,3.66
2022-11-27T15:42:58.245Z,3.60
2022-11-27T15:45:30.338Z,3.64
2022-11-27T15:48:01.016Z,3.67
2022-11-27T15:50:30.350Z,3.67
2022-11-27T15:53:00.900Z,3.70
2022-11-27T15:55:29.417Z,3.72
2022-11-27T15:57:59.118Z,3.71
2022-11-27T16:00:28.937Z,3.71
2022-11-27T16:02:57.331Z,3.67
2022-11-27T16:05:25.689Z,3.69
2022-11-27T16:07:55.600Z,3.68
2022-11-27T16:10:24.301Z,3.71
2022-11-27T16:12:55.126Z,3.71
2022-11-27T16:15:28.850Z,3.71
2022-11-27T16:18:01.236Z,3.62
2022-11-27T16:20:29.547Z,3.60
2022-11-27T16:22:57.853Z,3.60
2022-11-27T16:25:26.578Z,3.62
2022-11-27T16:28:00.964Z,3.59
2022-11-27T16:30:32.998Z,3.55
2022-11-27T16:33:02.842Z,3.51
2022-11-27T16:35:31.349Z,3.53
2022-11-27T16:38:01.644Z,3.51
2022-11-27T16:40:30.057Z,3.52
2022-11-27T16:42:58.370Z,3.55
2022-11-27T16:45:26.763Z,3.51
2022-11-27T16:47:56.550Z,3.46
2022-11-27T16:50:26.645Z,3.42
2022-11-27T16:52:55.491Z,3.40
2022-11-27T16:55:24.239Z,3.46
2022-11-27T16:57:52.953Z,3.47
2022-11-27T17:00:21.811Z,3.50
2022-11-27T17:02:50.534Z,3.54
2022-11-27T17:05:20.278Z,3.58
2022-11-27T17:07:48.886Z,3.51
2022-11-27T17:10:17.661Z,3.46
2022-11-27T17:12:45.962Z,3.42
2022-11-27T17:15:14.350Z,3.41
2022-11-27T17:17:43.401Z,3.47
2022-11-27T17:20:12.121Z,3.53
2022-11-27T17:22:41.811Z,3.54
2022-11-27T17:25:11.135Z,3.51
2022-11-27T17:27:39.498Z,3.53
2022-11-27T17:30:09.580Z,3.57
2022-11-27T17:32:38.390Z,3.61
2022-11-27T17:35:07.914Z,3.61
2022-11-27T17:37:37.081Z,3.54
2022-11-27T17:40:08.928Z,3.58
2022-11-27T17:42:37.352Z,3.63
2022-11-27T17:45:07.668Z,3.67
2022-11-27T17:47:36.047Z,3.71
2022-11-27T17:50:04.897Z,3.72
2022-11-27T17:52:33.265Z,3.73
2022-11-27T17:55:01.801Z,3.75
2022-11-27T17:57:31.514Z,3.78
2022-11-27T17:59:59.817Z,3.78
2022-11-27T18:02:28.265Z,3.70
2022-11-27T18:04:56.702Z,3.69
2022-11-27T18:07:25.072Z,3.73
2022-11-27T18:09:54.325Z,3.75
2022-11-27T18:12:22.606Z,3.72
2022-11-27T18:14:57.879Z,3.73
2022-11-27T18:17:29.446Z,3.73
2022-11-27T18:19:59.062Z,3.72
2022-11-27T18:22:27.496Z,3.65
2022-11-27T18:24:55.852Z,3.67
2022-11-27T18:27:24.642Z,3.70
2022-11-27T18:29:54.377Z,3.72
2022-11-27T18:32:22.990Z,3.73
2022-11-27T18:34:53.149Z,3.75
2022-11-27T18:37:22.070Z,3.75
2022-11-27T18:39:51.430Z,3.75
2022-11-27T18:42:19.792Z,3.78
2022-11-27T18:44:48.133Z,3.79
2022-11-27T18:47:17.878Z,3.77
2022-11-27T18:49:48.325Z,3.77
2022-11-27T18:52:16.745Z,3.74
2022-11-27T18:54:45.378Z,3.75
2022-11-27T18:57:13.761Z,3.73
2022-11-27T18:59:44.808Z,3.71
2022-11-27T19:02:14.357Z,3.70
2022-11-27T19:04:44.900Z,3.70
2022-11-27T19:07:13.692Z,3.68
2022-11-27T19:09:42.582Z,3.67
2022-11-27T19:12:12.252Z,3.67
2022-11-27T19:14:41.213Z,3.60
2022-11-27T19:17:10.088Z,3.53
2022-11-27T19:19:54.972Z,3.50
2022-11-27T19:22:25.084Z,3.41
2022-11-27T19:24:53.469Z,3.37
2022-11-27T19:27:21.782Z,3.29
2022-11-27T19:29:50.159Z,3.28
2022-11-27T19:32:19.228Z,3.25
2022-11-27T19:34:47.735Z,3.28
2022-11-27T19:37:24.812Z,3.33
2022-11-27T19:40:05.049Z,3.39
2022-11-27T19:42:36.750Z,3.41
2022-11-27T19:45:06.201Z,3.45
2022-11-27T19:47:34.566Z,3.49
2022-11-27T19:50:02.928Z,3.52
2022-11-27T19:52:31.320Z,3.57
2022-11-27T19:54:59.682Z,3.58
2022-11-27T19:57:29.572Z,3.59
2022-11-27T19:59:57.918Z,3.59
2022-11-27T20:02:26.451Z,3.60
2022-11-27T20:04:54.924Z,3.60
2022-11-27T20:07:23.350Z,3.60
2022-11-27T20:09:52.252Z,3.59
2022-11-27T20:12:20.639Z,3.57
2022-11-27T20:14:50.580Z,3.55
2022-11-27T20:17:19.266Z,3.52
2022-11-27T20:19:47.581Z,3.51
2022-11-27T20:22:15.910Z,3.49
2022-11-27T20:25:11.090Z,3.47
2022-11-27T20:27:34.028Z,3.45
2022-11-27T20:30:03.901Z,3.43
2022-11-27T20:32:32.245Z,3.43
2022-11-27T20:35:00.802Z,3.42
2022-11-27T20:37:30.109Z,3.41
2022-11-27T20:39:58.407Z,3.39
2022-11-27T20:42:26.804Z,3.38
2022-11-27T20:44:55.158Z,3.35
2022-11-27T20:47:24.979Z,3.34
2022-11-27T20:49:53.283Z,3.34
2022-11-27T20:52:21.659Z,3.34
2022-11-27T20:54:50.008Z,3.33
2022-11-27T20:57:18.402Z,3.31
2022-11-27T20:59:46.706Z,3.28
2022-11-27T21:02:15.147Z,3.27
2022-11-27T21:04:44.946Z,3.27
2022-11-27T21:07:14.693Z,3.24
2022-11-27T21:09:43.321Z,3.23
2022-11-27T21:12:13.715Z,3.22
2022-11-27T21:14:42.162Z,3.23
2022-11-27T21:17:10.558Z,3.21
2022-11-27T21:19:39.075Z,3.20
2022-11-27T21:22:08.949Z,3.19
2022-11-27T21:24:37.250Z,3.19
2022-11-27T21:27:05.730Z,3.19
2022-11-27T21:29:34.510Z,3.18
2022-11-27T21:32:02.913Z,3.18
2022-11-27T21:34:31.248Z,3.16
2022-11-27T21:36:59.869Z,3.15
2022-11-27T21:39:29.693Z,3.13
2022-11-27T21:41:58.055Z,3.13
2022-11-27T21:44:27.909Z,3.11
2022-11-27T21:46:56.556Z,3.07
2022-11-27T21:49:25.005Z,3.05
2022-11-27T21:51:54.265Z,3.00
2022-11-27T21:54:23.524Z,2.99
2022-11-27T21:56:53.694Z,2.97
2022-11-27T21:59:22.228Z,2.94
2022-11-27T22:01:51.170Z,2.93
2022-11-27T22:04:19.849Z,2.92
2022-11-27T22:06:48.440Z,2.91
2022-11-27T22:09:17.293Z,2.88
2022-11-27T22:11:46.618Z,2.86
2022-11-27T22:14:17.379Z,2.86
2022-11-27T22:16:46.682Z,2.85
2022-11-27T22:19:15.654Z,2.84
2022-11-27T22:21:44.955Z,2.83
2022-11-27T22:24:18.409Z,2.84
2022-11-27T22:26:48.087Z,2.86
2022-11-27T22:29:17.939Z,2.87
2022-11-27T22:31:46.288Z,2.86
2022-11-27T22:34:14.632Z,2.85
2022-11-27T22:36:43.029Z,2.86
2022-11-27T22:39:11.395Z,2.86
2022-11-27T22:41:42.030Z,2.86
2022-11-27T22:44:12.555Z,2.86
2022-11-27T22:46:43.322Z,2.85
2022-11-27T22:49:12.928Z,2.85
2022-11-27T22:51:41.940Z,2.83
2022-11-27T22:54:12.864Z,2.84
2022-11-27T22:56:41.538Z,2.83
2022-11-27T22:59:41.371Z,2.84
2022-11-27T23:02:01.327Z,2.84
2022-11-27T23:04:29.985Z,2.84
2022-11-27T23:06:58.352Z,2.86
2022-11-27T23:09:26.761Z,2.88
2022-11-27T23:11:56.427Z,2.89
2022-11-27T23:14:25.174Z,2.90
2022-11-27T23:16:53.948Z,2.90
2022-11-27T23:19:23.738Z,2.91
2022-11-27T23:21:52.120Z,2.94
2022-11-27T23:24:20.474Z,2.92
2022-11-27T23:26:49.131Z,2.91
2022-11-27T23:29:17.502Z,2.93
2022-11-27T23:31:45.929Z,2.93
2022-11-27T23:34:15.885Z,2.94
2022-11-27T23:36:45.871Z,2.97
2022-11-27T23:39:15.047Z,2.98
2022-11-27T23:41:43.997Z,2.94
2022-11-27T23:44:12.366Z,2.90
2022-11-27T23:46:40.724Z,2.92
2022-11-27T23:49:09.091Z,2.93
2022-11-27T23:51:37.713Z,2.93
2022-11-27T23:54:10.323Z,2.93
2022-11-27T23:56:39.671Z,2.92
2022-11-27T23:59:08.209Z,2.90
